Time;durP1;ratioP1;P1;durP2;ratioP2;P2;SDS_P1;SDS_P2;PMS_P1;PMS_P2;Temp;Humidity;BMP_temperature;BMP_pressure;BME280_temperature;BME280_humidity;BME280_pressure;Samples;Min_cycle;Max_cycle;Signal;HPM_P1;HPM_P2
2023/09/21 00:31:33;;;;;;;4.57;2.20;;;18.10;99.90;;;;;;5063527;28;20114;-83
2023/09/21 00:33:59;;;;;;;7.28;2.50;;;18.10;99.90;;;;;;5046349;28;20040;-83
2023/09/21 00:36:28;;;;;;;5.30;2.10;;;18.10;99.90;;;;;;5060718;28;20045;-83
2023/09/21 00:38:55;;;;;;;8.60;2.72;;;18.10;99.90;;;;;;5033002;28;20041;-81
2023/09/21 00:41:27;;;;;;;5.57;2.03;;;18.10;99.90;;;;;;5050877;28;20139;-82
2023/09/21 00:43:54;;;;;;;5.32;2.00;;;18.10;99.90;;;;;;5041669;28;20396;-82
2023/09/21 00:46:21;;;;;;;11.18;2.97;;;18.20;99.90;;;;;;5053258;28;20037;-82
2023/09/21 00:48:47;;;;;;;;;;;18.20;99.90;;;;;;5055574;28;20056;-82
2023/09/21 00:51:13;;;;;;;4.82;2.33;;;18.20;99.90;;;;;;5052340;28;19959;-80
2023/09/21 00:53:44;;;;;;;5.75;2.35;;;18.20;99.90;;;;;;5054874;28;20056;-83
2023/09/21 00:56:12;;;;;;;6.43;2.40;;;18.20;99.90;;;;;;5051930;28;20123;-82
2023/09/21 00:58:44;;;;;;;7.65;2.38;;;18.20;99.90;;;;;;5038785;28;20040;-82
2023/09/21 01:01:12;;;;;;;5.03;2.20;;;18.20;99.90;;;;;;5051891;28;20045;-82
2023/09/21 01:03:43;;;;;;;;;;;18.20;99.90;;;;;;5037153;28;20048;-84
2023/09/21 01:06:10;;;;;;;4.07;2.10;;;18.20;99.90;;;;;;5066382;28;19966;-81
2023/09/21 01:08:39;;;;;;;3.90;2.20;;;18.20;99.90;;;;;;5034909;28;20117;-81
2023/09/21 01:11:14;;;;;;;3.75;2.10;;;18.20;99.90;;;;;;5049928;28;20104;-82
2023/09/21 01:13:41;;;;;;;6.70;2.40;;;18.20;99.90;;;;;;5054328;28;20048;-84
2023/09/21 01:16:11;;;;;;;5.53;2.33;;;18.20;99.90;;;;;;5056009;28;20048;-84
2023/09/21 01:18:40;;;;;;;6.20;2.28;;;18.20;99.90;;;;;;5052886;28;20461;-83
2023/09/21 01:21:10;;;;;;;3.88;2.30;;;18.20;99.90;;;;;;5053760;28;20044;-82
2023/09/21 01:23:46;;;;;;;5.25;2.47;;;18.20;99.90;;;;;;5053512;28;20037;-81
2023/09/21 01:26:16;;;;;;;4.50;2.40;;;18.20;99.90;;;;;;5056228;28;20122;-81
2023/09/21 01:28:44;;;;;;;5.78;2.28;;;18.20;99.90;;;;;;5062172;28;20102;-80
2023/09/21 01:31:13;;;;;;;7.10;2.60;;;18.20;99.90;;;;;;5040966;28;20056;-83
2023/09/21 01:33:39;;;;;;;6.78;2.42;;;18.20;99.90;;;;;;5056963;28;20037;-83
2023/09/21 01:36:08;;;;;;;5.55;2.30;;;18.20;99.90;;;;;;5059716;28;20423;-84
2023/09/21 01:38:35;;;;;;;7.00;3.05;;;18.20;99.90;;;;;;5057569;28;20099;-83
2023/09/21 01:41:01;;;;;;;5.30;2.50;;;18.20;99.90;;;;;;5076966;28;20041;-83
2023/09/21 01:43:29;;;;;;;6.38;2.83;;;18.30;99.90;;;;;;5056738;28;20083;-81
2023/09/21 01:45:55;;;;;;;;;;;18.10;99.90;;;;;;5058290;28;20053;-82
2023/09/21 01:48:21;;;;;;;4.95;2.40;;;18.20;99.90;;;;;;5057876;28;19936;-83
2023/09/21 01:50:51;;;;;;;5.28;2.50;;;18.20;99.90;;;;;;5064928;28;20041;-82
2023/09/21 01:53:22;;;;;;;4.28;2.28;;;18.20;99.90;;;;;;5048044;28;20049;-81
2023/09/21 01:55:50;;;;;;;5.10;2.28;;;18.20;99.90;;;;;;5068999;28;20045;-83
2023/09/21 01:58:18;;;;;;;7.75;2.30;;;18.20;99.90;;;;;;5048059;28;20032;-81
2023/09/21 02:00:47;;;;;;;5.95;2.30;;;18.20;99.90;;;;;;5061616;28;20052;-82
2023/09/21 02:03:17;;;;;;;6.10;2.42;;;18.20;99.90;;;;;;5042411;28;20043;-83
2023/09/21 02:05:46;;;;;;;4.93;2.50;;;18.20;99.90;;;;;;5048694;28;20071;-82
2023/09/21 02:08:12;;;;;;;5.60;2.35;;;18.10;99.90;;;;;;5057312;28;20049;-82
2023/09/21 02:10:40;;;;;;;5.20;2.75;;;18.20;99.90;;;;;;5029683;28;20044;-82
2023/09/21 02:13:09;;;;;;;6.97;2.50;;;18.20;99.90;;;;;;5058475;28;20043;-82
2023/09/21 02:15:38;;;;;;;5.57;2.38;;;18.20;99.90;;;;;;5060327;28;20039;-81
2023/09/21 02:18:05;;;;;;;5.13;2.22;;;18.20;99.90;;;;;;5058906;28;20068;-82
2023/09/21 02:20:32;;;;;;;7.43;2.67;;;18.10;99.90;;;;;;5038637;28;20060;-82
2023/09/21 02:22:59;;;;;;;6.88;2.40;;;18.10;99.90;;;;;;5055597;28;20105;-82
2023/09/21 02:25:30;;;;;;;7.75;2.30;;;18.10;99.90;;;;;;5043302;28;20045;-81
2023/09/21 02:27:56;;;;;;;6.80;2.45;;;18.10;99.90;;;;;;5060199;28;20033;-83
2023/09/21 02:30:23;;;;;;;5.60;2.30;;;18.10;99.90;;;;;;5055964;28;20089;-81
2023/09/21 02:32:51;;;;;;;6.03;2.70;;;18.10;99.90;;;;;;5053461;28;20045;-80
2023/09/21 02:35:27;;;;;;;4.20;2.30;;;18.10;99.90;;;;;;5054477;28;20048;-81
2023/09/21 02:37:54;;;;;;;3.03;2.05;;;18.10;99.90;;;;;;5051167;28;20036;-82
2023/09/21 02:40:22;;;;;;;5.95;2.22;;;18.10;99.90;;;;;;5043636;28;20108;-83
2023/09/21 02:42:53;;;;;;;4.03;2.17;;;18.10;99.90;;;;;;5054547;28;20041;-81
2023/09/21 02:45:26;;;;;;;5.90;2.58;;;18.00;99.90;;;;;;5058646;28;20037;-82
2023/09/21 02:47:59;;;;;;;6.93;2.38;;;18.00;99.90;;;;;;5062462;28;20302;-82
2023/09/21 02:50:25;;;;;;;6.78;2.53;;;18.10;99.90;;;;;;5073977;28;20069;-81
2023/09/21 02:53:01;;;;;;;4.28;2.53;;;18.00;99.90;;;;;;5066577;28;20128;-82
2023/09/21 02:55:27;;;;;;;6.35;2.55;;;18.10;99.90;;;;;;5062425;28;20048;-82
2023/09/21 02:58:05;;;;;;;4.28;2.22;;;18.10;99.90;;;;;;5062228;28;20052;-82
2023/09/21 03:03:01;;;;;;;7.38;2.28;;;18.00;99.90;;;;;;5055167;28;20045;-82
2023/09/21 03:05:29;;;;;;;3.38;2.00;;;18.00;99.90;;;;;;5057323;28;20044;-82
2023/09/21 03:07:56;;;;;;;3.80;2.00;;;18.00;99.90;;;;;;5055075;28;20503;-80
2023/09/21 03:10:23;;;;;;;4.22;2.15;;;18.00;99.90;;;;;;5052735;28;20048;-82
2023/09/21 03:12:51;;;;;;;5.15;2.47;;;18.00;99.90;;;;;;5055473;28;20048;-83
2023/09/21 03:15:20;;;;;;;7.57;2.40;;;18.00;99.90;;;;;;5053758;28;20728;-82
2023/09/21 03:17:47;;;;;;;6.55;2.47;;;18.00;99.90;;;;;;5054628;28;20045;-83
2023/09/21 03:20:29;;;;;;;6.20;2.20;;;18.00;99.90;;;;;;5054760;28;20100;-82
2023/09/21 03:22:56;;;;;;;5.50;2.38;;;18.00;99.90;;;;;;5055737;28;20082;-83
2023/09/21 03:25:27;;;;;;;4.67;2.30;;;18.00;99.90;;;;;;5054257;28;20517;-81
2023/09/21 03:27:53;;;;;;;5.32;2.65;;;18.00;99.90;;;;;;5051043;28;20545;-80
2023/09/21 03:30:20;;;;;;;3.40;2.10;;;18.00;99.90;;;;;;5054755;28;20150;-83
2023/09/21 03:32:46;;;;;;;6.55;2.53;;;18.00;99.90;;;;;;5055199;28;20048;-83
2023/09/21 03:35:12;;;;;;;5.05;2.30;;;17.90;99.90;;;;;;5055249;28;20049;-81
2023/09/21 03:37:45;;;;;;;6.82;2.47;;;18.00;99.90;;;;;;5039270;28;20044;-81
2023/09/21 03:40:13;;;;;;;5.00;2.30;;;18.00;99.90;;;;;;5066315;28;20043;-80
2023/09/21 03:42:41;;;;;;;4.65;2.03;;;18.00;99.90;;;;;;5036689;28;20045;-81
2023/09/21 03:45:08;;;;;;;8.43;2.05;;;17.90;99.90;;;;;;5033689;28;20045;-81
2023/09/21 03:47:34;;;;;;;5.68;2.28;;;18.00;99.90;;;;;;5054363;28;20106;-81
2023/09/21 03:50:03;;;;;;;7.95;2.28;;;18.00;99.90;;;;;;5058870;28;20037;-83
2023/09/21 03:52:29;;;;;;;4.70;2.28;;;18.00;99.90;;;;;;5036051;28;20487;-82
2023/09/21 03:54:55;;;;;;;6.65;1.95;;;18.10;99.90;;;;;;5051164;28;20133;-82
2023/09/21 03:57:21;;;;;;;5.38;2.17;;;18.10;99.90;;;;;;5056276;28;20037;-82
2023/09/21 03:59:47;;;;;;;4.93;2.30;;;18.10;99.90;;;;;;5046700;28;20060;-82
2023/09/21 04:02:14;;;;;;;6.95;2.33;;;18.20;99.90;;;;;;5037960;28;20060;-82
2023/09/21 04:04:41;;;;;;;6.45;2.13;;;18.20;99.90;;;;;;5046229;28;20056;-80
2023/09/21 04:07:08;;;;;;;;;;;18.30;99.90;;;;;;5061672;28;20044;-82
2023/09/21 04:09:37;;;;;;;6.25;2.30;;;18.30;99.90;;;;;;5055329;28;19920;-80
2023/09/21 04:12:02;;;;;;;7.53;2.22;;;18.30;99.90;;;;;;5046500;28;20059;-81
2023/09/21 04:14:29;;;;;;;5.25;2.55;;;18.40;99.90;;;;;;5065091;28;20053;-80
2023/09/21 04:16:56;;;;;;;11.10;2.25;;;18.30;99.90;;;;;;5065366;28;20495;-83
2023/09/21 04:19:23;;;;;;;7.30;2.47;;;18.40;99.90;;;;;;5062712;28;20044;-81
2023/09/21 04:21:50;;;;;;;6.65;2.10;;;18.40;99.90;;;;;;5084503;28;20378;-83
2023/09/21 04:24:18;;;;;;;5.57;2.10;;;18.40;99.90;;;;;;5065691;28;20037;-83
2023/09/21 04:26:44;;;;;;;6.28;2.30;;;18.30;99.90;;;;;;5070376;28;20044;-82
2023/09/21 04:29:11;;;;;;;4.63;2.33;;;18.40;99.90;;;;;;5064695;28;20035;-81
2023/09/21 04:31:38;;;;;;;4.72;2.10;;;18.40;99.90;;;;;;5041964;28;20519;-83
2023/09/21 04:34:04;;;;;;;4.47;2.30;;;18.30;99.90;;;;;;5060301;28;20068;-81
2023/09/21 04:36:30;;;;;;;3.60;2.13;;;18.30;99.90;;;;;;5075042;28;20033;-83
2023/09/21 04:38:57;;;;;;;5.28;2.17;;;18.30;99.90;;;;;;5047272;28;20033;-83
2023/09/21 04:41:23;;;;;;;3.95;2.00;;;18.30;99.90;;;;;;5066273;28;20108;-81
2023/09/21 04:43:49;;;;;;;4.45;2.17;;;18.30;99.90;;;;;;5059339;28;20064;-82
2023/09/21 04:46:16;;;;;;;5.00;2.33;;;18.30;99.90;;;;;;5045764;28;20041;-79
2023/09/21 04:48:42;;;;;;;6.40;2.92;;;18.20;99.90;;;;;;5056807;28;20056;-83
2023/09/21 04:51:15;;;;;;;5.78;2.30;;;18.20;99.90;;;;;;5045174;28;20041;-81
2023/09/21 04:53:42;;;;;;;5.90;2.25;;;18.20;99.90;;;;;;5048861;28;20063;-82
2023/09/21 04:56:08;;;;;;;4.80;2.00;;;18.10;99.90;;;;;;5051051;28;20391;-81
2023/09/21 04:58:35;;;;;;;5.68;2.28;;;18.10;99.90;;;;;;5055926;28;20145;-81
2023/09/21 05:01:10;;;;;;;5.32;2.35;;;18.00;99.90;;;;;;5060571;28;20084;-80
2023/09/21 05:03:39;;;;;;;6.97;2.20;;;18.00;99.90;;;;;;5064391;28;20080;-82
2023/09/21 05:06:05;;;;;;;4.43;2.47;;;18.00;99.90;;;;;;5053643;28;20105;-81
2023/09/21 05:08:35;;;;;;;7.72;2.20;;;18.00;99.90;;;;;;5049539;28;20129;-84
2023/09/21 05:11:05;;;;;;;3.72;2.00;;;18.00;99.90;;;;;;5054313;28;20511;-84
2023/09/21 05:13:31;;;;;;;6.00;2.47;;;18.00;99.90;;;;;;5059708;28;20064;-80
2023/09/21 05:15:56;;;;;;;6.20;2.50;;;18.00;99.90;;;;;;5060460;28;20037;-81
2023/09/21 05:18:27;;;;;;;3.30;2.15;;;18.00;99.90;;;;;;5052586;28;20399;-80
2023/09/21 05:20:52;;;;;;;4.60;2.63;;;18.00;99.90;;;;;;5057461;28;20044;-80
2023/09/21 05:23:18;;;;;;;4.55;1.88;;;18.00;99.90;;;;;;5060267;28;20033;-82
2023/09/21 05:25:44;;;;;;;6.53;2.40;;;18.00;99.90;;;;;;5052994;28;20037;-83
2023/09/21 05:28:10;;;;;;;4.13;2.17;;;18.00;99.90;;;;;;5061316;28;20043;-81
2023/09/21 05:30:39;;;;;;;3.88;2.28;;;18.00;99.90;;;;;;5058208;28;20495;-81
2023/09/21 05:33:07;;;;;;;4.88;2.20;;;18.00;99.90;;;;;;5061298;28;20105;-82
2023/09/21 05:35:33;;;;;;;;;;;18.00;99.90;;;;;;5056280;28;20073;-84
2023/09/21 05:37:58;;;;;;;6.32;2.50;;;18.00;99.90;;;;;;5053642;28;20287;-81
2023/09/21 05:40:27;;;;;;;4.82;2.35;;;18.00;99.90;;;;;;5046295;28;20036;-82
2023/09/21 05:42:58;;;;;;;7.00;2.30;;;18.00;99.90;;;;;;5058328;28;20063;-80
2023/09/21 05:45:27;;;;;;;;;;;18.00;99.90;;;;;;5060780;28;20041;-81
2023/09/21 05:47:53;;;;;;;5.80;2.13;;;18.00;99.90;;;;;;5066331;28;19925;-80
2023/09/21 05:50:18;;;;;;;4.57;2.55;;;18.00;99.90;;;;;;5047889;28;20037;-83
2023/09/21 05:52:44;;;;;;;5.10;2.58;;;18.10;99.90;;;;;;5062132;28;20083;-83
2023/09/21 05:55:11;;;;;;;7.70;2.78;;;18.10;99.90;;;;;;5062203;28;20036;-83
2023/09/21 05:57:39;;;;;;;4.85;2.20;;;18.10;99.90;;;;;;5039633;28;20077;-82
2023/09/21 06:00:08;;;;;;;5.75;2.17;;;18.10;99.90;;;;;;5062364;28;20132;-86
2023/09/21 06:02:34;;;;;;;6.28;2.10;;;18.10;99.90;;;;;;5064618;28;20104;-80
2023/09/21 06:05:00;;;;;;;6.22;2.58;;;18.20;99.90;;;;;;5062562;28;20076;-83
2023/09/21 06:07:28;;;;;;;7.18;2.45;;;18.20;99.90;;;;;;5067347;28;20036;-80
2023/09/21 06:09:54;;;;;;;6.28;2.00;;;18.20;99.90;;;;;;5045625;28;20051;-80
2023/09/21 06:12:21;;;;;;;4.30;2.17;;;18.20;99.90;;;;;;5029572;28;20128;-82
2023/09/21 06:14:55;;;;;;;4.97;2.40;;;18.20;99.90;;;;;;5050258;28;20131;-82
2023/09/21 06:17:21;;;;;;;4.82;2.10;;;18.20;99.90;;;;;;5059912;28;20112;-80
2023/09/21 06:19:46;;;;;;;7.00;2.40;;;18.30;99.90;;;;;;5043114;28;20044;-84
2023/09/21 06:22:12;;;;;;;8.10;1.88;;;18.30;99.90;;;;;;5047732;28;20050;-84
2023/09/21 06:24:39;;;;;;;5.00;1.95;;;18.30;99.90;;;;;;5048656;28;20120;-82
2023/09/21 06:27:05;;;;;;;4.60;2.50;;;18.30;99.90;;;;;;5049038;28;20033;-84
2023/09/21 06:29:31;;;;;;;7.50;2.45;;;18.30;99.90;;;;;;5044867;28;20041;-81
2023/09/21 06:32:00;;;;;;;12.73;2.47;;;18.30;99.90;;;;;;5067526;28;20037;-83
2023/09/21 06:34:26;;;;;;;3.85;2.38;;;18.30;99.90;;;;;;5059855;28;20091;-81
2023/09/21 06:36:56;;;;;;;6.57;2.40;;;18.40;99.90;;;;;;5064751;28;20052;-82
2023/09/21 06:39:22;;;;;;;6.15;2.30;;;18.30;99.90;;;;;;5067638;28;20089;-84
2023/09/21 06:41:47;;;;;;;4.78;2.30;;;18.20;99.90;;;;;;5053382;28;20119;-82
2023/09/21 06:44:15;;;;;;;6.00;2.30;;;18.20;99.90;;;;;;5061006;28;20041;-79
2023/09/21 06:46:41;;;;;;;4.57;2.47;;;18.20;99.90;;;;;;5042185;28;20399;-81
2023/09/21 06:49:10;;;;;;;8.32;2.10;;;18.20;99.90;;;;;;5055943;28;20033;-82
2023/09/21 06:51:36;;;;;;;6.97;2.30;;;18.20;99.90;;;;;;5060509;28;20101;-82
2023/09/21 06:54:02;;;;;;;6.68;2.33;;;18.20;99.90;;;;;;5053927;28;20045;-82
2023/09/21 06:56:29;;;;;;;4.95;2.25;;;17.50;99.90;;;;;;5064123;28;20044;-79
2023/09/21 06:58:56;;;;;;;4.57;2.47;;;18.20;99.90;;;;;;5065538;28;20052;-81
2023/09/21 07:01:23;;;;;;;5.73;2.90;;;18.20;99.90;;;;;;5063269;28;20076;-82
2023/09/21 07:03:49;;;;;;;6.78;3.20;;;18.20;99.90;;;;;;5064050;28;20037;-83
2023/09/21 07:06:19;;;;;;;10.93;3.08;;;18.10;99.90;;;;;;5065927;28;20117;-81
2023/09/21 07:08:47;;;;;;;6.18;2.85;;;18.10;99.90;;;;;;5063533;28;20060;-84
2023/09/21 07:11:15;;;;;;;9.45;3.30;;;18.20;99.90;;;;;;5060412;28;20048;-81
2023/09/21 07:13:44;;;;;;;7.50;3.10;;;18.00;99.90;;;;;;5059107;28;20040;-82
2023/09/21 07:16:10;;;;;;;5.40;2.50;;;17.90;99.90;;;;;;5060456;28;20045;-80
2023/09/21 07:18:39;;;;;;;6.82;2.72;;;17.90;99.90;;;;;;5076733;28;20041;-81
2023/09/21 07:21:05;;;;;;;6.53;2.78;;;17.90;99.90;;;;;;5023961;28;20125;-82
2023/09/21 07:23:31;;;;;;;6.60;2.60;;;17.80;99.90;;;;;;5041317;28;20113;-79
2023/09/21 07:25:58;;;;;;;7.65;2.72;;;17.70;99.90;;;;;;5043156;28;20042;-82
2023/09/21 07:28:24;;;;;;;6.97;2.70;;;17.70;99.90;;;;;;5057619;28;20041;-82
2023/09/21 07:30:53;;;;;;;3.85;2.53;;;17.70;99.90;;;;;;5043509;28;20306;-80
2023/09/21 07:33:22;;;;;;;5.20;2.42;;;17.60;99.90;;;;;;5043480;28;20113;-81
2023/09/21 07:35:48;;;;;;;6.28;2.80;;;17.60;99.90;;;;;;5059472;28;20059;-83
2023/09/21 07:38:15;;;;;;;5.65;2.28;;;17.60;99.90;;;;;;5058781;28;20041;-83
2023/09/21 07:40:44;;;;;;;4.22;2.33;;;17.60;99.90;;;;;;5060571;28;20036;-85
2023/09/21 07:43:10;;;;;;;4.85;2.42;;;17.60;99.90;;;;;;5056375;28;20045;-84
2023/09/21 07:45:40;;;;;;;4.70;2.67;;;17.60;99.90;;;;;;5071305;28;20099;-82
2023/09/21 07:48:09;;;;;;;6.60;2.90;;;17.60;99.90;;;;;;5063027;28;20071;-84
2023/09/21 07:50:36;;;;;;;4.55;2.40;;;17.70;99.90;;;;;;5066425;28;20127;-86
2023/09/21 07:53:03;;;;;;;7.30;2.78;;;17.60;99.90;;;;;;5052139;28;20045;-83
2023/09/21 07:55:30;;;;;;;4.80;2.88;;;17.60;99.90;;;;;;5069185;28;20053;-82
2023/09/21 07:57:56;;;;;;;10.85;2.55;;;17.60;99.90;;;;;;5052303;28;20045;-82
2023/09/21 08:00:22;;;;;;;5.50;2.90;;;17.60;99.90;;;;;;5071936;28;20051;-85
2023/09/21 08:02:48;;;;;;;6.68;2.65;;;17.60;99.90;;;;;;5063950;28;20049;-83
2023/09/21 08:05:15;;;;;;;4.43;3.13;;;17.60;99.90;;;;;;5068029;28;20107;-82
2023/09/21 08:07:41;;;;;;;5.78;3.13;;;17.60;99.90;;;;;;5040380;28;20053;-82
2023/09/21 08:10:10;;;;;;;6.55;2.92;;;17.60;99.90;;;;;;5062594;28;20084;-83
2023/09/21 08:12:38;;;;;;;8.77;2.83;;;17.50;99.90;;;;;;5064009;28;20053;-83
2023/09/21 08:15:06;;;;;;;5.53;2.65;;;17.60;99.90;;;;;;5063424;28;20052;-84
2023/09/21 08:17:33;;;;;;;;;;;17.50;99.90;;;;;;5065853;28;20057;-84
2023/09/21 08:19:59;;;;;;;8.18;3.20;;;17.50;99.90;;;;;;5046504;28;19928;-83
2023/09/21 08:22:28;;;;;;;7.13;3.22;;;17.50;99.90;;;;;;5067803;28;20123;-83
2023/09/21 08:24:57;;;;;;;7.20;3.55;;;17.50;99.90;;;;;;5059267;28;20122;-83
2023/09/21 08:27:23;;;;;;;7.13;3.22;;;17.50;99.90;;;;;;5067588;28;20108;-82
2023/09/21 08:29:49;;;;;;;6.90;2.83;;;17.50;99.90;;;;;;5055213;28;20424;-84
2023/09/21 08:32:17;;;;;;;9.85;3.50;;;17.50;99.90;;;;;;5084426;28;20037;-83
2023/09/21 08:34:45;;;;;;;6.47;3.20;;;17.50;99.90;;;;;;5061430;28;20041;-82
2023/09/21 08:37:14;;;;;;;6.07;3.00;;;17.50;99.90;;;;;;5062100;28;20047;-82
2023/09/21 08:39:40;;;;;;;7.15;3.00;;;17.50;99.90;;;;;;5065435;28;20120;-83
2023/09/21 08:42:06;;;;;;;12.82;3.60;;;17.50;99.90;;;;;;5058603;28;20057;-83
2023/09/21 08:44:32;;;;;;;6.53;3.33;;;17.50;99.90;;;;;;5044401;28;20044;-83
2023/09/21 08:46:59;;;;;;;6.28;3.03;;;17.50;99.90;;;;;;5061097;28;20056;-83
2023/09/21 08:49:28;;;;;;;7.90;3.38;;;17.50;99.90;;;;;;5038478;28;20037;-83
2023/09/21 08:51:56;;;;;;;6.35;3.42;;;17.40;99.90;;;;;;5049273;28;20041;-83
2023/09/21 08:54:23;;;;;;;7.20;3.05;;;17.50;99.90;;;;;;5065963;28;20057;-83
2023/09/21 08:56:55;;;;;;;6.18;3.40;;;17.40;99.90;;;;;;5035142;28;20042;-83
2023/09/21 08:59:21;;;;;;;5.90;3.10;;;17.40;99.90;;;;;;5028773;28;20034;-83
2023/09/21 09:01:48;;;;;;;6.97;3.42;;;17.40;99.90;;;;;;5042233;28;20051;-82
2023/09/21 09:04:14;;;;;;;9.48;3.80;;;17.30;99.90;;;;;;5060786;28;20068;-81
2023/09/21 09:06:40;;;;;;;7.20;3.33;;;17.30;99.90;;;;;;5065732;28;20040;-82
2023/09/21 09:09:07;;;;;;;5.65;3.50;;;17.30;99.90;;;;;;5067304;28;20379;-83
2023/09/21 09:11:40;;;;;;;6.90;3.85;;;17.30;99.90;;;;;;5067459;28;20139;-83
2023/09/21 09:14:22;;;;;;;5.63;3.70;;;17.20;99.90;;;;;;5051689;28;20049;-82
2023/09/21 09:16:49;;;;;;;4.00;2.00;;;17.20;99.90;;;;;;5070313;28;20053;-81
2023/09/21 09:19:16;;;;;;;3.63;1.58;;;17.20;99.90;;;;;;5050283;28;20555;-81
2023/09/21 09:21:49;;;;;;;4.63;1.45;;;17.10;99.90;;;;;;5066543;28;20056;-82
2023/09/21 09:24:16;;;;;;;3.28;1.70;;;17.00;99.90;;;;;;5067549;28;20120;-83
2023/09/21 09:26:42;;;;;;;6.60;1.75;;;17.20;99.90;;;;;;5062271;28;20040;-81
2023/09/21 09:29:09;;;;;;;2.38;1.02;;;16.80;99.90;;;;;;5051801;28;20041;-83
2023/09/21 09:31:39;;;;;;;5.90;1.60;;;16.80;99.90;;;;;;5056490;28;20056;-82
2023/09/21 09:34:05;;;;;;;3.00;1.40;;;16.50;99.90;;;;;;5061547;28;20040;-82
2023/09/21 09:36:35;;;;;;;5.90;1.55;;;16.40;99.90;;;;;;5070809;28;20041;-81
2023/09/21 09:39:08;;;;;;;4.65;1.50;;;16.40;99.90;;;;;;5071502;28;20041;-81
2023/09/21 09:41:35;;;;;;;4.63;1.67;;;16.30;99.90;;;;;;5044650;28;20040;-78
2023/09/21 09:44:06;;;;;;;3.20;1.80;;;16.30;99.90;;;;;;5062707;28;20033;-79
2023/09/21 09:46:37;;;;;;;2.00;1.30;;;16.30;99.90;;;;;;5046917;28;20125;-79
2023/09/21 09:49:05;;;;;;;5.90;1.65;;;16.70;99.90;;;;;;5066356;28;20050;-80
2023/09/21 09:51:44;;;;;;;3.88;1.52;;;16.20;99.90;;;;;;5048814;28;20067;-80
2023/09/21 09:54:11;;;;;;;3.72;1.50;;;16.20;99.90;;;;;;5059256;28;20176;-81
2023/09/21 09:56:44;;;;;;;3.58;1.67;;;16.10;99.90;;;;;;5063457;28;20037;-81
2023/09/21 09:59:15;;;;;;;3.05;1.52;;;16.10;99.90;;;;;;5063133;28;20067;-80
2023/09/21 10:01:41;;;;;;;5.70;1.70;;;16.30;99.90;;;;;;5055440;28;20043;-79
2023/09/21 10:04:07;;;;;;;4.30;1.50;;;16.10;99.90;;;;;;5060374;28;20494;-79
2023/09/21 10:06:40;;;;;;;4.43;1.60;;;16.00;99.90;;;;;;5049103;28;20069;-79
2023/09/21 10:09:13;;;;;;;2.10;1.30;;;16.00;99.90;;;;;;5055998;28;20036;-80
2023/09/21 10:11:45;;;;;;;3.60;1.80;;;15.90;99.90;;;;;;5053672;28;20052;-79
2023/09/21 10:14:13;;;;;;;2.88;1.92;;;15.90;99.90;;;;;;5043238;28;20045;-79
2023/09/21 10:16:48;;;;;;;2.72;1.48;;;15.80;99.90;;;;;;5057773;28;20094;-79
2023/09/21 10:19:24;;;;;;;3.63;1.45;;;15.80;99.90;;;;;;5059172;28;20052;-80
2023/09/21 10:21:54;;;;;;;3.80;1.77;;;15.80;99.90;;;;;;5050909;28;20530;-78
2023/09/21 10:24:22;;;;;;;4.63;1.55;;;15.70;99.90;;;;;;5055218;28;20078;-77
2023/09/21 10:26:53;;;;;;;2.88;1.40;;;15.70;99.90;;;;;;5056399;28;20037;-79
2023/09/21 10:29:20;;;;;;;3.42;1.27;;;15.70;99.90;;;;;;5061257;28;20075;-79
2023/09/21 10:32:00;;;;;;;3.03;1.48;;;15.70;99.90;;;;;;5050260;28;20060;-79
2023/09/21 10:34:26;;;;;;;2.97;1.10;;;15.70;99.90;;;;;;5048593;28;20089;-78
2023/09/21 10:37:10;;;;;;;2.78;1.30;;;15.70;99.90;;;;;;5052981;28;20037;-79
2023/09/21 10:39:39;;;;;;;1.95;1.30;;;15.70;99.90;;;;;;5039743;28;20937;-79
2023/09/21 10:42:06;;;;;;;2.45;1.42;;;15.60;99.90;;;;;;5054514;28;20045;-78
2023/09/21 10:45:00;;;;;;;3.05;1.00;;;15.60;99.90;;;;;;5055316;28;20551;-80
2023/09/21 10:47:44;;;;;;;2.30;1.30;;;15.60;99.90;;;;;;5060564;28;20049;-78
2023/09/21 10:50:12;;;;;;;2.38;1.48;;;15.60;99.90;;;;;;5057043;28;20154;-81
2023/09/21 10:52:41;;;;;;;;;;;15.50;99.90;;;;;;5041279;28;20131;-78
2023/09/21 10:55:16;;;;;;;2.42;1.50;;;15.50;99.90;;;;;;5040452;28;19931;-79
2023/09/21 10:57:46;;;;;;;1.95;1.13;;;15.50;99.90;;;;;;5041323;28;20052;-79
2023/09/21 11:00:17;;;;;;;3.47;1.50;;;15.50;99.90;;;;;;5057535;28;20048;-79
2023/09/21 11:02:46;;;;;;;6.40;2.30;;;15.50;99.90;;;;;;5058819;28;20083;-78
2023/09/21 11:05:16;;;;;;;4.07;1.95;;;15.60;99.90;;;;;;5036126;28;20042;-79
2023/09/21 11:07:46;;;;;;;3.47;1.70;;;15.60;99.90;;;;;;5038822;28;20063;-79
2023/09/21 11:10:15;;;;;;;3.15;1.90;;;15.70;99.90;;;;;;5055620;28;20383;-80
2023/09/21 11:12:41;;;;;;;4.68;2.22;;;15.80;99.90;;;;;;5057048;28;20036;-79
2023/09/21 11:15:13;;;;;;;4.85;2.00;;;15.80;99.90;;;;;;5054864;28;20060;-78
2023/09/21 11:17:44;;;;;;;3.78;1.77;;;15.80;99.90;;;;;;5039964;28;20045;-79
2023/09/21 11:20:17;;;;;;;4.78;2.05;;;15.90;99.90;;;;;;5037163;28;20042;-79
2023/09/21 11:22:44;;;;;;;3.97;1.70;;;15.90;99.90;;;;;;5042166;28;20399;-78
2023/09/21 11:25:16;;;;;;;5.07;2.13;;;15.90;99.90;;;;;;5052262;28;20394;-80
2023/09/21 11:27:43;;;;;;;7.90;2.70;;;15.90;99.90;;;;;;5036281;28;20087;-79
2023/09/21 11:30:11;;;;;;;52.45;9.57;;;15.90;99.90;;;;;;5029265;28;20072;-79
2023/09/21 11:32:46;;;;;;;8.35;3.03;;;15.90;99.90;;;;;;5042709;28;20110;-79
2023/09/21 11:35:16;;;;;;;6.75;3.00;;;15.80;99.90;;;;;;5063615;28;20711;-78
2023/09/21 11:37:42;;;;;;;3.60;2.00;;;15.90;99.90;;;;;;5053388;28;20045;-78
2023/09/21 11:40:13;;;;;;;4.22;1.75;;;15.90;99.90;;;;;;5068483;28;20029;-79
2023/09/21 11:42:45;;;;;;;3.90;1.67;;;16.00;99.90;;;;;;5042881;28;20042;-78
2023/09/21 11:45:19;;;;;;;3.42;1.52;;;16.00;99.90;;;;;;5041103;28;20575;-78
2023/09/21 11:47:56;;;;;;;1.88;1.25;;;16.00;99.90;;;;;;5042025;28;20048;-79
2023/09/21 11:50:27;;;;;;;3.08;1.60;;;16.00;99.90;;;;;;5042953;28;20104;-77
2023/09/21 11:52:59;;;;;;;2.63;1.40;;;16.10;99.90;;;;;;5057484;28;20053;-78
2023/09/21 11:55:26;;;;;;;2.72;1.48;;;16.10;99.90;;;;;;5057510;28;20037;-79
2023/09/21 11:57:53;;;;;;;4.43;1.50;;;16.20;99.90;;;;;;5061777;28;20037;-78
2023/09/21 12:00:37;;;;;;;6.88;1.50;;;16.20;99.90;;;;;;5063194;28;20083;-79
2023/09/21 12:03:03;;;;;;;2.78;1.30;;;16.20;99.90;;;;;;5059143;28;20052;-79
2023/09/21 12:05:31;;;;;;;4.40;1.98;;;16.30;99.90;;;;;;5059106;28;20041;-79
2023/09/21 12:07:57;;;;;;;2.90;1.40;;;16.20;99.90;;;;;;5062085;28;20096;-79
2023/09/21 12:10:24;;;;;;;5.07;1.70;;;16.20;99.90;;;;;;5044680;28;20073;-77
2023/09/21 12:12:50;;;;;;;3.58;1.30;;;16.20;99.90;;;;;;5061880;28;20048;-79
2023/09/21 12:15:19;;;;;;;2.90;1.58;;;16.10;99.90;;;;;;5058193;28;20053;-77
2023/09/21 12:17:45;;;;;;;5.55;1.63;;;16.10;99.90;;;;;;5051380;28;20083;-80
2023/09/21 12:20:16;;;;;;;3.40;1.55;;;16.10;99.90;;;;;;5063842;28;20029;-79
2023/09/21 12:22:42;;;;;;;4.20;1.77;;;16.10;99.90;;;;;;5038791;28;20102;-79
2023/09/21 12:25:08;;;;;;;3.65;1.35;;;16.10;99.90;;;;;;5057877;28;20547;-79
2023/09/21 12:27:35;;;;;;;3.40;1.70;;;16.10;99.90;;;;;;5061490;28;20041;-79
2023/09/21 12:30:01;;;;;;;2.70;1.47;;;16.20;99.90;;;;;;5041584;28;20053;-80
2023/09/21 12:32:28;;;;;;;2.33;1.50;;;16.20;99.90;;;;;;5033045;28;20043;-81
2023/09/21 12:34:54;;;;;;;3.22;1.80;;;16.20;99.90;;;;;;5057747;28;20041;-80
2023/09/21 12:37:21;;;;;;;3.05;1.70;;;16.20;99.90;;;;;;5062924;28;20037;-78
2023/09/21 12:39:47;;;;;;;2.60;1.57;;;16.30;99.90;;;;;;5063528;28;20037;-78
2023/09/21 12:42:14;;;;;;;2.67;1.73;;;16.30;99.90;;;;;;5068453;28;20047;-79
2023/09/21 12:44:40;;;;;;;2.13;1.45;;;16.30;99.90;;;;;;5073766;28;20063;-78
2023/09/21 12:47:09;;;;;;;5.30;1.50;;;16.30;99.90;;;;;;5067194;28;20076;-79
2023/09/21 12:49:35;;;;;;;2.83;1.60;;;16.30;99.90;;;;;;5043203;28;20049;-77
2023/09/21 12:52:01;;;;;;;3.88;1.80;;;16.30;99.90;;;;;;5066980;28;20041;-78
2023/09/21 12:54:27;;;;;;;2.92;1.60;;;16.30;99.90;;;;;;5064164;28;20045;-78
2023/09/21 12:56:53;;;;;;;5.15;1.80;;;16.30;99.90;;;;;;5044821;28;20043;-78
2023/09/21 12:59:19;;;;;;;2.60;1.60;;;16.40;99.90;;;;;;5072005;28;20049;-78
2023/09/21 13:01:44;;;;;;;4.78;2.20;;;16.40;99.90;;;;;;5079342;28;20052;-78
2023/09/21 13:04:10;;;;;;;4.47;1.70;;;16.40;99.90;;;;;;5066531;28;20030;-79
2023/09/21 13:06:38;;;;;;;3.88;2.25;;;16.40;99.90;;;;;;5078565;28;20048;-77
2023/09/21 13:09:06;;;;;;;3.58;2.08;;;16.60;99.90;;;;;;5083639;28;20041;-78
2023/09/21 13:11:32;;;;;;;5.40;1.70;;;16.70;99.90;;;;;;5058695;28;20049;-79
2023/09/21 13:13:58;;;;;;;3.10;1.52;;;16.90;99.90;;;;;;5048628;28;20044;-79
2023/09/21 13:16:26;;;;;;;2.60;1.58;;;16.90;99.90;;;;;;5054886;28;20048;-80
2023/09/21 13:18:52;;;;;;;4.60;1.70;;;17.00;99.90;;;;;;5052353;28;20347;-79
2023/09/21 13:21:18;;;;;;;5.50;1.80;;;16.90;99.90;;;;;;5052652;28;20182;-80
2023/09/21 13:23:43;;;;;;;2.92;1.60;;;16.90;99.90;;;;;;5059953;28;20064;-80
2023/09/21 13:26:09;;;;;;;3.30;1.30;;;16.80;99.90;;;;;;5059416;28;20132;-79